createdAt,value
2023-02-11T00:00:16.193Z,83.92
2023-02-11T00:02:46.081Z,83.92
2023-02-11T00:05:14.219Z,83.87
2023-02-11T00:07:40.908Z,83.68
2023-02-11T00:10:08.667Z,83.63
2023-02-11T00:12:36.870Z,83.93
2023-02-11T00:15:04.541Z,83.68
2023-02-11T00:17:32.740Z,83.71
2023-02-11T00:19:59.534Z,84.05
2023-02-11T00:22:26.141Z,84.15
2023-02-11T00:24:52.750Z,84.11
2023-02-11T00:27:20.837Z,84.05
2023-02-11T00:29:47.412Z,83.91
2023-02-11T00:32:14.057Z,84.21
2023-02-11T00:34:40.995Z,84.59
2023-02-11T00:37:07.654Z,84.80
2023-02-11T00:39:34.248Z,84.73
2023-02-11T00:42:03.299Z,84.66
2023-02-11T00:44:29.950Z,84.42
2023-02-11T00:46:56.593Z,84.05
2023-02-11T00:49:25.493Z,83.51
2023-02-11T00:51:52.209Z,83.21
2023-02-11T00:54:19.998Z,82.89
2023-02-11T00:56:46.564Z,82.39
2023-02-11T00:59:13.234Z,82.34
2023-02-11T01:01:40.001Z,80.56
2023-02-11T01:04:07.874Z,80.17
2023-02-11T01:06:34.508Z,80.49
2023-02-11T01:09:01.118Z,80.71
2023-02-11T01:11:27.660Z,80.37
2023-02-11T01:13:54.272Z,80.73
2023-02-11T01:16:22.670Z,80.74
2023-02-11T01:18:49.708Z,80.90
2023-02-11T01:21:18.149Z,80.83
2023-02-11T01:23:47.929Z,81.02
2023-02-11T01:26:14.655Z,80.66
2023-02-11T01:28:41.339Z,81.17
2023-02-11T01:31:08.029Z,81.33
2023-02-11T01:33:34.678Z,81.25
2023-02-11T01:36:06.464Z,81.34
2023-02-11T01:38:33.787Z,81.49
2023-02-11T01:41:03.755Z,81.65
2023-02-11T01:43:41.034Z,81.31
2023-02-11T01:46:36.491Z,81.18
2023-02-11T01:49:12.155Z,80.70
2023-02-11T01:51:43.292Z,80.44
2023-02-11T01:54:33.240Z,79.91
2023-02-11T01:57:21.023Z,79.81
2023-02-11T01:59:56.772Z,79.83
2023-02-11T02:02:52.516Z,80.10
2023-02-11T02:05:31.381Z,80.17
2023-02-11T02:08:09.098Z,80.38
2023-02-11T02:10:37.877Z,80.66
2023-02-11T02:13:04.465Z,80.94
2023-02-11T02:15:33.733Z,81.29
2023-02-11T02:18:46.302Z,81.32
2023-02-11T02:21:25.113Z,81.36
2023-02-11T02:24:28.613Z,81.25
2023-02-11T02:27:37.256Z,81.45
2023-02-11T02:30:43.300Z,81.31
2023-02-11T02:33:28.670Z,81.15
2023-02-11T02:35:55.218Z,81.13
2023-02-11T02:38:30.613Z,81.10
2023-02-11T02:41:10.908Z,80.78
2023-02-11T02:43:43.771Z,80.94
2023-02-11T02:46:27.212Z,80.28
2023-02-11T02:48:55.057Z,80.26
2023-02-11T02:51:46.583Z,80.41
2023-02-11T02:54:51.151Z,80.52
2023-02-11T02:57:38.734Z,80.66
2023-02-11T03:00:20.453Z,80.85
2023-02-11T03:03:29.218Z,81.15
2023-02-11T03:06:06.024Z,81.41
2023-02-11T03:08:41.358Z,81.51
2023-02-11T03:11:10.498Z,81.54
2023-02-11T03:13:39.320Z,81.09
2023-02-11T03:16:13.906Z,81.35
2023-02-11T03:18:44.377Z,81.32
2023-02-11T03:21:11.670Z,81.25
2023-02-11T03:23:48.651Z,81.27
2023-02-11T03:26:40.612Z,81.54
2023-02-11T03:29:17.962Z,81.17
2023-02-11T03:32:06.717Z,81.42
2023-02-11T03:34:42.282Z,81.42
2023-02-11T03:37:17.973Z,81.34
2023-02-11T03:39:54.589Z,81.57
2023-02-11T03:42:23.777Z,81.37
2023-02-11T03:44:57.275Z,81.47
2023-02-11T03:47:27.444Z,81.15
2023-02-11T03:49:55.791Z,80.70
2023-02-11T03:52:24.711Z,80.73
2023-02-11T03:54:55.791Z,80.54
2023-02-11T03:57:22.359Z,80.80
2023-02-11T03:59:54.585Z,80.94
2023-02-11T04:02:24.246Z,81.19
2023-02-11T04:04:51.262Z,81.02
2023-02-11T04:07:18.173Z,80.88
2023-02-11T04:09:44.775Z,81.23
2023-02-11T04:12:11.457Z,81.31
2023-02-11T04:14:38.105Z,81.28
2023-02-11T04:17:04.722Z,81.50
2023-02-11T04:19:31.368Z,81.37
2023-02-11T04:21:58.025Z,81.82
2023-02-11T04:24:25.099Z,81.91
2023-02-11T04:26:51.849Z,82.23
2023-02-11T04:29:19.240Z,82.31
2023-02-11T04:31:46.180Z,82.33
2023-02-11T04:34:12.984Z,82.16
2023-02-11T04:36:39.810Z,82.83
2023-02-11T04:39:07.094Z,82.61
2023-02-11T04:41:33.857Z,82.73
2023-02-11T04:44:00.627Z,82.08
2023-02-11T04:46:27.300Z,81.44
2023-02-11T04:48:54.253Z,81.56
2023-02-11T04:51:21.011Z,81.58
2023-02-11T04:53:47.705Z,81.72
2023-02-11T04:56:14.417Z,82.13
2023-02-11T04:58:41.074Z,81.89
2023-02-11T05:01:09.913Z,81.78
2023-02-11T05:03:37.269Z,82.13
2023-02-11T05:06:04.981Z,81.85
2023-02-11T05:08:31.778Z,81.63
2023-02-11T05:10:58.577Z,81.33
2023-02-11T05:13:25.571Z,81.18
2023-02-11T05:15:53.662Z,81.31
2023-02-11T05:18:20.434Z,81.48
2023-02-11T05:20:47.066Z,81.62
2023-02-11T05:23:13.670Z,81.79
2023-02-11T05:25:40.261Z,82.21
2023-02-11T05:28:06.891Z,82.31
2023-02-11T05:30:33.856Z,82.90
2023-02-11T05:33:00.665Z,83.48
2023-02-11T05:35:27.310Z,83.51
2023-02-11T05:37:54.014Z,83.62
2023-02-11T05:40:20.672Z,83.31
2023-02-11T05:42:47.221Z,83.85
2023-02-11T05:45:13.839Z,83.61
2023-02-11T05:47:40.405Z,83.19
2023-02-11T05:50:07.205Z,83.18
2023-02-11T05:52:33.963Z,83.07
2023-02-11T05:55:00.686Z,83.31
2023-02-11T05:57:27.266Z,83.15
2023-02-11T05:59:53.829Z,83.46
2023-02-11T06:02:20.666Z,83.35
2023-02-11T06:04:47.306Z,83.05
2023-02-11T06:07:13.980Z,82.84
2023-02-11T06:09:40.773Z,82.55
2023-02-11T06:12:07.675Z,82.26
2023-02-11T06:14:34.544Z,81.94
2023-02-11T06:17:01.579Z,81.79
2023-02-11T06:19:28.430Z,81.66
2023-02-11T06:21:56.359Z,81.25
2023-02-11T06:24:47.806Z,80.82
2023-02-11T06:27:10.577Z,80.84
2023-02-11T06:29:37.207Z,80.55
2023-02-11T06:32:04.446Z,79.91
2023-02-11T06:34:31.097Z,79.70
2023-02-11T06:36:57.625Z,79.20
2023-02-11T06:39:24.343Z,78.59
2023-02-11T06:41:50.950Z,78.59
2023-02-11T06:44:17.536Z,78.65
2023-02-11T06:46:44.246Z,78.31
2023-02-11T06:49:10.884Z,77.82
2023-02-11T06:51:37.464Z,77.74
2023-02-11T06:54:05.597Z,77.57
2023-02-11T06:56:32.637Z,77.02
2023-02-11T06:58:59.774Z,76.20
2023-02-11T07:01:27.950Z,75.34
2023-02-11T07:03:54.967Z,74.60
2023-02-11T07:06:24.750Z,73.57
2023-02-11T07:08:51.509Z,72.85
2023-02-11T07:11:28.989Z,72.23
2023-02-11T07:14:00.687Z,71.67
2023-02-11T07:16:27.580Z,70.73
2023-02-11T07:18:54.351Z,70.63
2023-02-11T07:21:24.224Z,69.68
2023-02-11T07:23:51.288Z,69.90
2023-02-11T07:26:20.589Z,68.85
2023-02-11T07:28:47.177Z,68.74
2023-02-11T07:31:20.108Z,68.21
2023-02-11T07:33:47.267Z,68.57
2023-02-11T07:36:15.987Z,68.23
2023-02-11T07:38:42.938Z,67.88
2023-02-11T07:41:11.983Z,67.86
2023-02-11T07:43:39.931Z,67.84
2023-02-11T07:46:08.774Z,67.25
2023-02-11T07:48:35.491Z,68.31
2023-02-11T07:51:26.124Z,72.54
2023-02-11T07:53:53.575Z,72.79
2023-02-11T07:56:21.280Z,74.31
2023-02-11T07:58:48.826Z,75.76
2023-02-11T08:01:22.482Z,76.04
2023-02-11T08:03:49.440Z,76.55
2023-02-11T08:06:18.601Z,77.60
2023-02-11T08:08:45.225Z,78.67
2023-02-11T08:11:13.281Z,79.74
2023-02-11T08:13:40.155Z,79.38
2023-02-11T08:16:07.833Z,79.96
2023-02-11T08:18:35.272Z,80.10
2023-02-11T08:21:09.473Z,80.25
2023-02-11T08:23:38.064Z,80.26
2023-02-11T08:26:10.236Z,79.59
2023-02-11T08:28:41.837Z,79.91
2023-02-11T08:31:14.831Z,81.12
2023-02-11T08:33:41.760Z,80.74
2023-02-11T08:36:13.235Z,79.80
2023-02-11T08:38:39.973Z,79.27
2023-02-11T08:41:06.904Z,79.75
2023-02-11T08:43:34.189Z,80.54
2023-02-11T08:46:02.385Z,80.90
2023-02-11T08:48:29.725Z,80.78
2023-02-11T08:50:56.597Z,79.99
2023-02-11T08:53:23.573Z,80.24
2023-02-11T08:55:52.240Z,80.30
2023-02-11T08:58:19.365Z,78.70
2023-02-11T09:00:46.569Z,77.14
2023-02-11T09:03:14.710Z,76.19
2023-02-11T09:05:47.237Z,71.14
2023-02-11T09:08:14.357Z,66.80
2023-02-11T09:10:41.304Z,62.74
2023-02-11T09:13:08.638Z,59.99
2023-02-11T09:15:35.269Z,57.84
2023-02-11T09:18:02.173Z,55.88
2023-02-11T09:20:29.172Z,55.33
2023-02-11T09:22:57.638Z,54.45
2023-02-11T09:25:24.432Z,54.22
2023-02-11T09:27:52.373Z,52.75
2023-02-11T09:30:19.214Z,53.17
2023-02-11T09:32:45.832Z,51.94
2023-02-11T09:35:12.486Z,52.23
2023-02-11T09:37:39.101Z,51.44
2023-02-11T09:40:06.251Z,51.33
2023-02-11T09:43:05.223Z,51.31
2023-02-11T09:45:32.264Z,50.77
2023-02-11T09:48:18.618Z,50.34
2023-02-11T09:50:53.515Z,50.22
2023-02-11T09:53:23.139Z,49.64
2023-02-11T09:55:55.967Z,49.04
2023-02-11T09:58:36.448Z,48.61
2023-02-11T10:01:27.740Z,49.22
2023-02-11T10:04:32.862Z,48.55
2023-02-11T10:07:23.288Z,48.53
2023-02-11T10:10:04.837Z,48.02
2023-02-11T10:13:11.301Z,47.88
2023-02-11T10:16:00.049Z,47.25
2023-02-11T10:19:07.331Z,47.07
2023-02-11T10:21:47.794Z,47.23
2023-02-11T10:24:16.729Z,46.39
2023-02-11T10:26:45.453Z,46.35
2023-02-11T10:29:42.138Z,46.63
2023-02-11T10:32:25.532Z,46.42
2023-02-11T10:34:56.066Z,46.31
2023-02-11T10:37:22.652Z,46.01
2023-02-11T10:39:49.239Z,46.63
2023-02-11T10:42:16.052Z,46.39
2023-02-11T10:45:07.446Z,45.66
2023-02-11T10:47:37.697Z,46.15
2023-02-11T10:50:21.745Z,45.73
2023-02-11T10:52:48.684Z,45.71
2023-02-11T10:55:20.962Z,46.10
2023-02-11T10:57:57.933Z,46.23
2023-02-11T11:00:38.870Z,45.96
2023-02-11T11:03:17.690Z,45.63
2023-02-11T11:06:05.431Z,45.42
2023-02-11T11:08:54.705Z,45.07
2023-02-11T11:11:24.025Z,44.85
2023-02-11T11:13:53.552Z,44.59
2023-02-11T11:16:34.415Z,44.63
2023-02-11T11:19:07.271Z,44.30
2023-02-11T11:21:42.647Z,44.19
2023-02-11T11:24:21.066Z,43.68
2023-02-11T11:26:51.812Z,43.35
2023-02-11T11:29:28.746Z,44.30
2023-02-11T11:31:59.405Z,44.51
2023-02-11T11:34:38.170Z,44.57
2023-02-11T11:37:22.604Z,44.50
2023-02-11T11:40:00.994Z,44.94
2023-02-11T11:42:32.606Z,44.69
2023-02-11T11:45:15.284Z,44.30
2023-02-11T11:47:41.816Z,44.23
2023-02-11T11:50:28.062Z,44.55
2023-02-11T11:53:04.517Z,44.25
2023-02-11T11:55:43.784Z,44.27
2023-02-11T11:58:16.505Z,44.94
2023-02-11T12:00:56.491Z,44.24
2023-02-11T12:03:48.900Z,44.39
2023-02-11T12:06:24.823Z,44.65
2023-02-11T12:09:17.565Z,44.48
2023-02-11T12:12:16.074Z,44.41
2023-02-11T12:15:01.627Z,44.35
2023-02-11T12:17:43.571Z,43.98
2023-02-11T12:20:31.708Z,44.52
2023-02-11T12:23:35.169Z,44.09
2023-02-11T12:26:15.587Z,44.44
2023-02-11T12:29:01.070Z,44.27
2023-02-11T12:31:31.580Z,44.30
2023-02-11T12:34:06.253Z,44.20
2023-02-11T12:36:48.585Z,43.59
2023-02-11T12:39:34.336Z,43.68
2023-02-11T12:42:28.923Z,43.44
2023-02-11T12:45:10.887Z,44.01
2023-02-11T12:48:12.932Z,44.09
2023-02-11T12:51:05.812Z,44.30
2023-02-11T12:53:32.307Z,44.68
2023-02-11T12:56:06.493Z,44.43
2023-02-11T12:58:44.904Z,44.99
2023-02-11T13:01:27.850Z,45.16
2023-02-11T13:04:02.138Z,45.64
2023-02-11T13:06:40.065Z,44.88
2023-02-11T13:09:18.863Z,44.77
2023-02-11T13:11:52.007Z,44.79
2023-02-11T13:14:29.122Z,44.94
2023-02-11T13:16:58.325Z,44.76
2023-02-11T13:19:38.796Z,45.26
2023-02-11T13:22:05.459Z,45.22
2023-02-11T13:24:49.308Z,45.36
2023-02-11T13:27:24.768Z,45.53
2023-02-11T13:30:13.175Z,45.76
2023-02-11T13:32:58.028Z,45.65
2023-02-11T13:35:32.886Z,45.16
2023-02-11T13:38:02.481Z,45.73
2023-02-11T13:40:36.700Z,45.89
2023-02-11T13:43:19.120Z,45.57
2023-02-11T13:45:48.708Z,45.45
2023-02-11T13:48:29.200Z,45.05
2023-02-11T13:51:01.994Z,45.70
2023-02-11T13:53:30.072Z,44.88
2023-02-11T13:56:33.560Z,44.41
2023-02-11T13:59:05.940Z,44.40
2023-02-11T14:02:14.424Z,44.95
2023-02-11T14:05:25.626Z,45.35
2023-02-11T14:08:33.266Z,45.12
2023-02-11T14:11:14.751Z,45.57
2023-02-11T14:13:47.545Z,45.44
2023-02-11T14:16:16.950Z,45.22
2023-02-11T14:18:56.021Z,45.72
2023-02-11T14:21:32.408Z,45.87
2023-02-11T14:24:19.270Z,46.49
2023-02-11T14:27:07.676Z,46.29
2023-02-11T14:29:53.224Z,46.72
2023-02-11T14:32:34.173Z,46.71
2023-02-11T14:35:23.740Z,47.07
2023-02-11T14:38:12.036Z,47.10
2023-02-11T14:41:11.330Z,47.10
2023-02-11T14:43:46.928Z,47.10
2023-02-11T14:46:17.686Z,47.49
2023-02-11T14:48:50.573Z,47.85
2023-02-11T14:51:38.655Z,47.73
2023-02-11T14:54:17.157Z,47.71
2023-02-11T14:56:44.681Z,47.95
2023-02-11T14:59:20.360Z,48.45
2023-02-11T15:01:52.138Z,48.63
2023-02-11T15:04:25.309Z,48.77
2023-02-11T15:06:52.994Z,49.04
2023-02-11T15:09:27.997Z,49.08
2023-02-11T15:11:57.741Z,49.53
2023-02-11T15:14:28.545Z,49.84
2023-02-11T15:16:58.574Z,49.72
2023-02-11T15:19:35.936Z,49.75
2023-02-11T15:22:07.341Z,49.90
2023-02-11T15:24:35.566Z,50.29
2023-02-11T15:27:12.747Z,49.64
2023-02-11T15:29:45.594Z,50.33
2023-02-11T15:32:30.681Z,50.89
2023-02-11T15:34:58.467Z,55.52
2023-02-11T15:37:29.733Z,51.33
2023-02-11T15:40:28.033Z,51.41
2023-02-11T15:43:01.749Z,51.49
2023-02-11T15:45:34.714Z,51.83
2023-02-11T15:48:21.708Z,51.44
2023-02-11T15:50:58.725Z,51.62
2023-02-11T15:53:29.557Z,52.07
2023-02-11T15:56:25.474Z,52.31
2023-02-11T15:58:55.418Z,52.05
2023-02-11T16:01:37.255Z,52.51
2023-02-11T16:04:05.854Z,52.41
2023-02-11T16:06:37.416Z,51.95
2023-02-11T16:09:11.021Z,51.92
2023-02-11T16:11:56.638Z,52.34
2023-02-11T16:14:37.257Z,52.36
2023-02-11T16:17:24.158Z,52.54
2023-02-11T16:19:53.246Z,52.28
2023-02-11T16:22:24.870Z,52.31
2023-02-11T16:24:54.337Z,52.49
2023-02-11T16:27:38.516Z,52.96
2023-02-11T16:30:06.655Z,53.13
2023-02-11T16:32:33.492Z,52.89
2023-02-11T16:35:01.385Z,53.35
2023-02-11T16:37:28.256Z,53.50
2023-02-11T16:39:56.057Z,53.71
2023-02-11T16:42:23.294Z,53.71
2023-02-11T16:44:49.967Z,54.13
2023-02-11T16:47:24.871Z,54.31
2023-02-11T16:49:51.792Z,54.60
2023-02-11T16:52:20.932Z,54.60
2023-02-11T16:54:47.973Z,54.59
2023-02-11T16:57:20.413Z,55.03
2023-02-11T16:59:47.630Z,55.03
2023-02-11T17:02:24.076Z,55.18
2023-02-11T17:04:53.425Z,55.28
2023-02-11T17:07:20.090Z,55.46
2023-02-11T17:09:46.727Z,55.68
2023-02-11T17:12:13.376Z,55.69
2023-02-11T17:14:40.070Z,56.19
2023-02-11T17:17:06.712Z,58.59
2023-02-11T17:19:33.590Z,56.83
2023-02-11T17:22:00.271Z,56.18
2023-02-11T17:24:26.909Z,58.79
2023-02-11T17:26:54.719Z,57.31
2023-02-11T17:29:23.655Z,57.23
2023-02-11T17:31:52.171Z,57.20
2023-02-11T17:34:20.269Z,58.32
2023-02-11T17:36:46.900Z,57.64
2023-02-11T17:39:14.039Z,57.75
2023-02-11T17:41:41.207Z,58.01
2023-02-11T17:44:10.559Z,57.94
2023-02-11T17:46:37.154Z,58.01
2023-02-11T17:49:04.345Z,58.69
2023-02-11T17:51:33.569Z,58.52
2023-02-11T17:54:04.240Z,58.56
2023-02-11T17:56:35.757Z,58.93
2023-02-11T17:59:03.598Z,59.22
2023-02-11T18:01:32.193Z,59.50
2023-02-11T18:03:59.210Z,59.67
2023-02-11T18:06:26.027Z,59.09
2023-02-11T18:08:52.662Z,59.61
2023-02-11T18:11:19.580Z,59.39
2023-02-11T18:13:51.426Z,60.06
2023-02-11T18:16:18.133Z,59.94
2023-02-11T18:18:44.832Z,60.63
2023-02-11T18:21:14.068Z,61.23
2023-02-11T18:23:40.815Z,60.47
2023-02-11T18:26:08.746Z,61.74
2023-02-11T18:28:35.602Z,60.76
2023-02-11T18:31:02.925Z,60.83
2023-02-11T18:33:30.572Z,60.52
2023-02-11T18:35:57.605Z,62.18
2023-02-11T18:38:24.943Z,61.08
2023-02-11T18:40:52.472Z,60.28
2023-02-11T18:43:22.251Z,61.40
2023-02-11T18:45:50.777Z,61.29
2023-02-11T18:48:19.570Z,60.43
2023-02-11T18:50:46.651Z,61.17
2023-02-11T18:53:17.965Z,60.07
2023-02-11T18:55:45.945Z,59.41
2023-02-11T18:58:13.431Z,58.88
2023-02-11T19:00:43.167Z,58.61
2023-02-11T19:03:09.824Z,59.75
2023-02-11T19:05:49.019Z,58.48
2023-02-11T19:08:17.257Z,58.25
2023-02-11T19:10:46.943Z,58.91
2023-02-11T19:13:16.378Z,58.46
2023-02-11T19:15:47.281Z,58.90
2023-02-11T19:18:16.079Z,59.17
2023-02-11T19:20:43.703Z,58.34
2023-02-11T19:23:11.182Z,58.54
2023-02-11T19:25:44.356Z,58.57
2023-02-11T19:28:11.294Z,58.91
2023-02-11T19:30:38.076Z,59.09
2023-02-11T19:33:05.239Z,59.12
2023-02-11T19:35:35.288Z,58.88
2023-02-11T19:38:03.849Z,59.04
2023-02-11T19:40:31.257Z,59.02
2023-02-11T19:42:57.929Z,59.01
2023-02-11T19:45:24.595Z,59.04
2023-02-11T19:47:55.034Z,59.19
2023-02-11T19:50:21.934Z,59.04
2023-02-11T19:52:48.592Z,59.15
2023-02-11T19:55:15.252Z,59.29
2023-02-11T19:57:41.901Z,59.47
2023-02-11T20:00:11.049Z,59.38
2023-02-11T20:02:40.978Z,59.66
2023-02-11T20:05:07.929Z,59.88
2023-02-11T20:07:34.948Z,60.04
2023-02-11T20:10:01.702Z,59.46
2023-02-11T20:12:28.455Z,60.09
2023-02-11T20:14:55.017Z,59.85
2023-02-11T20:17:21.718Z,60.18
2023-02-11T20:19:48.316Z,60.36
2023-02-11T20:22:14.996Z,60.54
2023-02-11T20:24:41.707Z,60.34
2023-02-11T20:27:10.433Z,60.58
2023-02-11T20:29:38.477Z,60.56
2023-02-11T20:32:06.841Z,60.47
2023-02-11T20:34:33.693Z,60.53
2023-02-11T20:37:00.590Z,60.57
2023-02-11T20:39:27.287Z,60.80
2023-02-11T20:41:54.817Z,61.02
2023-02-11T20:44:22.347Z,60.89
2023-02-11T20:46:49.851Z,60.87
2023-02-11T20:49:22.922Z,61.39
2023-02-11T20:51:50.001Z,61.27
2023-02-11T20:54:19.628Z,61.44
2023-02-11T20:56:48.258Z,61.59
2023-02-11T20:59:16.861Z,61.68
2023-02-11T21:01:46.643Z,61.94
2023-02-11T21:04:17.124Z,61.92
2023-02-11T21:06:47.507Z,61.76
2023-02-11T21:09:17.361Z,61.89
2023-02-11T21:11:44.157Z,61.79
2023-02-11T21:14:12.040Z,61.87
2023-02-11T21:16:39.035Z,62.35
2023-02-11T21:19:06.313Z,62.22
2023-02-11T21:21:35.946Z,62.34
2023-02-11T21:24:02.892Z,62.52
2023-02-11T21:26:29.574Z,62.81
2023-02-11T21:28:56.359Z,63.05
2023-02-11T21:31:28.944Z,62.96
2023-02-11T21:33:56.749Z,63.26
2023-02-11T21:36:23.885Z,63.74
2023-02-11T21:38:51.069Z,64.09
2023-02-11T21:41:22.292Z,63.90
2023-02-11T21:43:49.813Z,64.38
2023-02-11T21:46:17.624Z,64.22
2023-02-11T21:48:44.355Z,64.54
2023-02-11T21:51:23.260Z,64.50
2023-02-11T21:53:58.962Z,64.51
2023-02-11T21:56:28.988Z,64.91
2023-02-11T21:58:57.285Z,64.62
2023-02-11T22:01:27.222Z,64.83
2023-02-11T22:03:53.969Z,65.01
2023-02-11T22:06:28.536Z,65.25
2023-02-11T22:08:55.514Z,65.12
2023-02-11T22:11:22.290Z,65.27
2023-02-11T22:13:54.239Z,65.33
2023-02-11T22:16:21.687Z,66.06
2023-02-11T22:18:48.520Z,65.85
2023-02-11T22:21:17.837Z,66.18
2023-02-11T22:23:45.333Z,66.28
2023-02-11T22:26:15.097Z,66.47
2023-02-11T22:28:42.790Z,66.28
2023-02-11T22:31:18.123Z,66.69
2023-02-11T22:33:46.160Z,66.29
2023-02-11T22:36:18.709Z,65.83
2023-02-11T22:38:45.301Z,65.87
2023-02-11T22:41:15.653Z,66.09
2023-02-11T22:43:43.765Z,65.85
2023-02-11T22:46:13.110Z,66.01
2023-02-11T22:48:40.262Z,66.91
2023-02-11T22:51:11.830Z,66.51
2023-02-11T22:53:38.705Z,66.49
2023-02-11T22:56:15.018Z,66.69
2023-02-11T22:58:42.082Z,66.28
2023-02-11T23:01:08.754Z,66.68
2023-02-11T23:03:35.773Z,66.57
2023-02-11T23:06:03.083Z,66.53
2023-02-11T23:08:31.168Z,66.57
2023-02-11T23:11:04.766Z,66.61
2023-02-11T23:13:33.486Z,66.52
2023-02-11T23:16:04.661Z,66.81
2023-02-11T23:18:31.412Z,67.03
2023-02-11T23:21:08.981Z,67.16
2023-02-11T23:23:36.826Z,67.11
2023-02-11T23:26:04.361Z,67.68
2023-02-11T23:28:31.073Z,68.15
2023-02-11T23:30:57.864Z,68.08
2023-02-11T23:33:24.531Z,68.68
2023-02-11T23:35:51.313Z,68.32
2023-02-11T23:38:17.914Z,68.73
2023-02-11T23:40:44.471Z,68.74
2023-02-11T23:43:11.244Z,69.02
2023-02-11T23:45:37.935Z,69.13
2023-02-11T23:48:04.603Z,69.26
2023-02-11T23:50:32.564Z,69.63
2023-02-11T23:52:59.134Z,69.55
2023-02-11T23:55:25.825Z,69.42
2023-02-11T23:57:52.396Z,69.69
